Strona główna
METAR-TAF:

METAR-TAF

Lotnisko :

Port lotniczy Bergamo-Orio al Serio

Bergamo, Włochy

Szerokość geograficzna: 45-40N, Długość geograficzna: 009-42E, wysokość: 238 m

Aktualna obserwacja pogody

Raport powstał 33 minut temu, godzina 19:20 UTC
Wiatr 4 kt od południowo-południowy wschód, zmienny między wschodnio-południowy wschód i południe
Temperatura 6°C
Wilgotność 93%
Ciśnienie 1016 hPa
Widzialność: 4000 m
Przerywane chmury na wysokości 6000 ft
zamglenie

METAR: LIME 081920Z 15004KT 120V190 4000 BR BKN060 06/05 Q1016 NOSIG

czas: 20:53 (19:53 UTC)

Prognoza

Raport powstał 2 godziny i 53 minut temu, godzina 17:00 UTC
Prognoza ważna od 08 godzina 18 UTC do 09 godzina 18 UTC
Wiatr 5 kt z kierunków zmiennych
Widzialność: 4000 m
Przerywane chmury na wysokości 4000 ft
zamglenie
Przejściowo
od 09 godzina 00 UTC do 09 godzina 08 UTC
mżawka
Stopniowe zmiany
od 09 godzina 08 UTC do 09 godzina 11 UTC
Widzialność: 7000 m

TAF: LIME 081700Z 0818/0918 VRB05KT 4000 BR BKN040 TEMPO 0900/0908 DZ BECMG 0908/0911 7000

Obserwacja i prognoza pogody dla ponad 4000 lotnisk (raport METAR i TAF).

Dostępne stacje oznaczono żółtymi i czerwonymi punktami na mapie.

Najedź kursorem aby zobaczyć nazwę stacji.

Kliknij aby zobaczyć obserwacje i prognozy pogody.

Aby zmienić mapę: kliknij na zielony przycisk z czarnym krzyżykiem, aby powiększyć; na zielony przycisk z myślnikiem, aby pomniejszyć; na zielone strzałki, aby przejść do map sąsiednich.


METAR-TAF: